Terminal Aerodrome Forecast
Issued by NWS Sioux Falls, SD

Home | Current Version | Previous Version | Graphics & Text | Print | Product List | Glossary Off
Versions: 1 2 3 4 5 6 7 8 9 10 11 12 13 14 15 16 17

000
FTUS43 KFSD 252333
TAFFSD
TAF
KFSD 252333Z 2600/2624 33016KT P6SM FEW050
     FM260200 33008KT P6SM FEW050
     FM261500 34007KT P6SM SCT025 BKN150
     FM261800 34010KT P6SM BKN040=

USA.gov is the U.S. government's official web portal to all federal, state and local government web resources and services.